Time;durP1;ratioP1;P1;durP2;ratioP2;P2;SDS_P1;SDS_P2;PMS_P1;PMS_P2;Temp;Humidity;BMP_temperature;BMP_pressure;BME280_temperature;BME280_humidity;BME280_pressure;Samples;Min_cycle;Max_cycle;Signal;HPM_P1;HPM_P2
2022/04/28 00:02:09;;;;;;;;;;;4.40;99.90;;;;;;5076647;28;19946;-71
2022/04/28 00:04:34;;;;;;;;;;;4.50;99.90;;;;;;5077842;28;20310;-71
2022/04/28 00:07:00;;;;;;;;;;;4.50;99.90;;;;;;5076482;28;19921;-71
2022/04/28 00:09:25;;;;;;;;;;;4.50;99.90;;;;;;5079697;28;20307;-73
2022/04/28 00:11:52;;;;;;;;;;;4.60;99.90;;;;;;5075231;28;20075;-71
2022/04/28 00:14:18;;;;;;;;;;;4.70;99.90;;;;;;5059958;28;19920;-74
2022/04/28 00:16:43;;;;;;;;;;;4.70;99.90;;;;;;5071784;28;20354;-71
2022/04/28 00:19:09;;;;;;;;;;;4.80;99.90;;;;;;5067446;28;20338;-72
2022/04/28 00:21:34;;;;;;;;;;;4.80;99.90;;;;;;5075786;28;20229;-71
2022/04/28 00:24:00;;;;;;;;;;;4.80;99.90;;;;;;5076411;28;19917;-71
2022/04/28 00:26:25;;;;;;;;;;;4.80;99.90;;;;;;5075951;28;20342;-71
2022/04/28 00:28:51;;;;;;;;;;;4.80;99.90;;;;;;5060071;28;19913;-71
2022/04/28 00:31:16;;;;;;;;;;;4.90;99.90;;;;;;5057514;28;19909;-71
2022/04/28 00:33:42;;;;;;;;;;;5.00;99.90;;;;;;5074087;28;19917;-71
2022/04/28 00:36:08;;;;;;;;;;;5.10;99.90;;;;;;5077321;28;19952;-71
2022/04/28 00:38:34;;;;;;;;;;;5.10;99.90;;;;;;5075003;28;19978;-71
2022/04/28 00:40:59;;;;;;;;;;;5.10;99.90;;;;;;5076826;28;19916;-73
2022/04/28 00:43:28;;;;;;;;;;;5.10;99.90;;;;;;5075371;28;19923;-72
2022/04/28 00:45:54;;;;;;;;;;;5.10;99.90;;;;;;5077216;28;19908;-71
2022/04/28 00:51:05;;;;;;;;;;;5.40;99.90;;;;;;5075623;28;19946;-72
2022/04/28 00:53:33;;;;;;;;;;;5.30;99.90;;;;;;5074006;28;19935;-71
2022/04/28 00:55:59;;;;;;;;;;;5.30;99.90;;;;;;5077080;28;20234;-72
2022/04/28 00:58:25;;;;;;;;;;;5.30;99.90;;;;;;5063334;28;19967;-72
2022/04/28 01:00:53;;;;;;;;;;;5.20;99.90;;;;;;5073668;28;19913;-71
2022/04/28 01:03:19;;;;;;;;;;;5.20;99.90;;;;;;5074586;28;19955;-71
2022/04/28 01:05:45;;;;;;;;;;;5.10;99.90;;;;;;5076765;28;20338;-72
2022/04/28 01:08:10;;;;;;;;;;;5.10;99.90;;;;;;5075553;28;19913;-72
2022/04/28 01:10:36;;;;;;;;;;;5.00;99.90;;;;;;5075669;28;19916;-71
2022/04/28 01:13:02;;;;;;;;;;;5.00;99.90;;;;;;5074399;28;19916;-74
2022/04/28 01:15:27;;;;;;;;;;;4.90;99.90;;;;;;5076071;28;19916;-71
2022/04/28 01:17:53;;;;;;;;;;;4.90;99.90;;;;;;5074142;28;19912;-71
2022/04/28 01:20:19;;;;;;;;;;;4.90;99.90;;;;;;5075852;28;19915;-71
2022/04/28 01:22:44;;;;;;;;;;;4.80;99.90;;;;;;5072735;28;19932;-72
2022/04/28 01:25:11;;;;;;;;;;;4.80;99.90;;;;;;5075534;28;19995;-71
2022/04/28 01:27:37;;;;;;;;;;;4.70;99.90;;;;;;5076223;28;19914;-71
2022/04/28 01:30:03;;;;;;;;;;;4.60;99.90;;;;;;5057964;28;19916;-74
2022/04/28 01:32:29;;;;;;;;;;;4.70;99.90;;;;;;5072303;28;20204;-71
2022/04/28 01:34:54;;;;;;;;;;;4.60;99.90;;;;;;5056974;28;20011;-71
2022/04/28 01:37:20;;;;;;;;;;;4.60;99.90;;;;;;5074420;28;19997;-71
2022/04/28 01:39:46;;;;;;;;;;;4.50;99.90;;;;;;5075986;28;20345;-72
2022/04/28 01:42:11;;;;;;;;;;;4.50;99.90;;;;;;5074956;28;19916;-71
2022/04/28 01:44:40;;;;;;;;;;;4.50;99.90;;;;;;5064225;28;19939;-71
2022/04/28 01:47:05;;;;;;;;;;;4.50;99.90;;;;;;5068431;28;20201;-73
2022/04/28 01:49:31;;;;;;;;;;;4.40;99.90;;;;;;5075825;28;19915;-72
2022/04/28 01:54:59;;;;;;;;;;;4.40;99.90;;;;;;5075906;28;19915;-71
2022/04/28 01:57:29;;;;;;;;;;;4.40;99.90;;;;;;5073914;28;19916;-72
2022/04/28 01:59:56;;;;;;;;;;;4.40;99.90;;;;;;5075854;28;20219;-71
2022/04/28 02:02:22;;;;;;;;;;;4.40;99.90;;;;;;5074192;28;19916;-72
2022/04/28 02:04:48;;;;;;;;;;;4.30;99.90;;;;;;5074703;28;19916;-72
2022/04/28 02:07:13;;;;;;;;;;;4.30;99.90;;;;;;5073953;28;20212;-71
2022/04/28 02:09:40;;;;;;;;;;;4.20;99.90;;;;;;5073901;28;19923;-72
2022/04/28 02:12:06;;;;;;;;;;;4.30;99.90;;;;;;5074700;28;19970;-72
2022/04/28 02:14:32;;;;;;;;;;;4.20;99.90;;;;;;5072507;28;19913;-73
2022/04/28 02:16:57;;;;;;;;;;;4.20;99.90;;;;;;5074585;28;19909;-72
2022/04/28 02:19:23;;;;;;;;;;;4.20;99.90;;;;;;5056670;28;20330;-72
2022/04/28 02:21:48;;;;;;;;;;;4.20;99.90;;;;;;5060971;28;19920;-74
2022/04/28 02:24:14;;;;;;;;;;;4.20;99.90;;;;;;5074460;28;20349;-72
2022/04/28 02:26:40;;;;;;;;;;;4.10;99.90;;;;;;5075732;28;19912;-72
2022/04/28 02:29:05;;;;;;;;;;;4.20;99.90;;;;;;5074081;28;19913;-72
2022/04/28 02:31:31;;;;;;;;;;;4.30;99.90;;;;;;5073894;28;19956;-72
2022/04/28 02:33:56;;;;;;;;;;;4.30;99.90;;;;;;5074750;28;19946;-71
2022/04/28 02:36:24;;;;;;;;;;;4.30;99.90;;;;;;5076971;28;19908;-72
2022/04/28 02:38:50;;;;;;;;;;;4.30;99.90;;;;;;5078747;28;19917;-73
2022/04/28 02:41:20;;;;;;;;;;;4.30;99.90;;;;;;5078551;28;19913;-72
2022/04/28 02:43:46;;;;;;;;;;;4.30;99.90;;;;;;5078075;28;19921;-72
2022/04/28 02:46:11;;;;;;;;;;;4.20;99.90;;;;;;5078016;28;20188;-72
2022/04/28 02:48:37;;;;;;;;;;;4.20;99.90;;;;;;5077742;28;20242;-73
2022/04/28 02:51:03;;;;;;;;;;;4.10;99.90;;;;;;5079220;28;19908;-72
2022/04/28 02:53:28;;;;;;;;;;;4.00;99.90;;;;;;5078087;28;20059;-72
2022/04/28 02:55:54;;;;;;;;;;;3.90;99.90;;;;;;5077093;28;19916;-74
2022/04/28 02:58:19;;;;;;;;;;;3.90;99.90;;;;;;5069955;28;19917;-72
2022/04/28 03:00:45;;;;;;;;;;;3.80;99.90;;;;;;5077489;28;19948;-72
2022/04/28 03:03:10;;;;;;;;;;;3.80;99.90;;;;;;5077837;28;20223;-72
2022/04/28 03:11:04;;;;;;;;;;;3.80;99.90;;;;;;5077128;28;19947;-72
2022/04/28 03:13:32;;;;;;;;;;;3.80;99.90;;;;;;5078243;28;20239;-71
2022/04/28 03:15:57;;;;;;;;;;;3.70;99.90;;;;;;5078876;28;19915;-71
2022/04/28 03:18:23;;;;;;;;;;;3.80;99.90;;;;;;5076985;28;20253;-74
2022/04/28 03:20:48;;;;;;;;;;;3.80;99.90;;;;;;5075543;28;20007;-72
2022/04/28 03:23:14;;;;;;;;;;;3.80;99.90;;;;;;5078622;28;20320;-72
2022/04/28 03:25:40;;;;;;;;;;;3.70;99.90;;;;;;5078609;28;19920;-73
2022/04/28 03:28:06;;;;;;;;;;;3.70;99.90;;;;;;5076665;28;20322;-73
2022/04/28 03:30:32;;;;;;;;;;;3.70;99.90;;;;;;5074323;28;19920;-72
2022/04/28 03:32:57;;;;;;;;;;;3.70;99.90;;;;;;5077649;28;19912;-72
2022/04/28 03:35:23;;;;;;;;;;;3.60;99.90;;;;;;5078305;28;19952;-72
2022/04/28 03:37:48;;;;;;;;;;;3.60;99.90;;;;;;5078685;28;19924;-73
2022/04/28 03:40:14;;;;;;;;;;;3.60;99.90;;;;;;5076656;28;19970;-72
2022/04/28 03:42:40;;;;;;;;;;;3.50;99.90;;;;;;5075330;28;19921;-75
2022/04/28 03:45:06;;;;;;;;;;;3.40;99.90;;;;;;5077332;28;19919;-72
2022/04/28 03:47:32;;;;;;;;;;;3.40;99.90;;;;;;5077577;28;19909;-72
2022/04/28 03:49:58;;;;;;;;;;;3.40;99.90;;;;;;5069154;28;19916;-72
2022/04/28 03:52:23;;;;;;;;;;;3.50;99.90;;;;;;5069007;28;20224;-72
2022/04/28 03:54:49;;;;;;;;;;;3.40;99.90;;;;;;5058248;28;20064;-73
2022/04/28 03:57:14;;;;;;;;;;;3.40;99.90;;;;;;5070307;28;20319;-77
2022/04/28 03:59:40;;;;;;;;;;;3.40;99.90;;;;;;5074425;28;19913;-72
2022/04/28 04:02:06;;;;;;;;;;;3.50;99.90;;;;;;5074835;28;19916;-72
2022/04/28 04:04:31;;;;;;;;;;;3.50;99.90;;;;;;5075894;28;19917;-72
2022/04/28 04:06:57;;;;;;;;;;;3.50;99.90;;;;;;5075327;28;19919;-73
2022/04/28 04:09:23;;;;;;;;;;;3.50;99.90;;;;;;5074505;28;19966;-74
2022/04/28 04:11:49;;;;;;;;;;;3.50;99.90;;;;;;5076378;28;19917;-72
2022/04/28 04:14:14;;;;;;;;;;;3.50;99.90;;;;;;5076429;28;19928;-72
2022/04/28 04:16:40;;;;;;;;;;;3.50;99.90;;;;;;5076375;28;19999;-72
2022/04/28 04:19:05;;;;;;;;;;;3.50;99.90;;;;;;5074801;28;20008;-72
2022/04/28 04:21:31;;;;;;;;;;;3.50;99.90;;;;;;5074720;28;20266;-73
2022/04/28 04:23:57;;;;;;;;;;;3.50;99.90;;;;;;5073209;28;19913;-72
2022/04/28 04:26:23;;;;;;;;;;;3.60;99.90;;;;;;5075993;28;19908;-74
2022/04/28 04:28:48;;;;;;;;;;;3.60;99.90;;;;;;5075586;28;19909;-74
2022/04/28 04:33:58;;;;;;;;;;;3.60;99.90;;;;;;5074319;28;19958;-72
2022/04/28 04:36:24;;;;;;;;;;;3.70;99.90;;;;;;5074760;28;19916;-73
2022/04/28 04:38:49;;;;;;;;;;;3.70;99.90;;;;;;5075189;28;20352;-73
2022/04/28 04:41:15;;;;;;;;;;;3.80;99.90;;;;;;5076013;28;19920;-72
2022/04/28 04:43:40;;;;;;;;;;;3.80;99.90;;;;;;5075464;28;20215;-72
2022/04/28 04:46:06;;;;;;;;;;;3.80;99.90;;;;;;5073880;28;20196;-73
2022/04/28 04:48:31;;;;;;;;;;;3.90;99.90;;;;;;5074612;28;19920;-72
2022/04/28 04:50:57;;;;;;;;;;;4.00;99.90;;;;;;5075934;28;19915;-72
2022/04/28 04:53:23;;;;;;;;;;;4.10;99.90;;;;;;5077084;28;19908;-74
2022/04/28 04:55:48;;;;;;;;;;;4.20;99.90;;;;;;5075795;28;20326;-72
2022/04/28 04:58:14;;;;;;;;;;;4.30;99.90;;;;;;5073734;28;20105;-72
2022/04/28 05:00:40;;;;;;;;;;;4.40;99.90;;;;;;5075308;28;19962;-72
2022/04/28 05:03:05;;;;;;;;;;;4.50;99.90;;;;;;5063841;28;19917;-72
2022/04/28 05:05:31;;;;;;;;;;;4.60;99.90;;;;;;5068645;28;19913;-72
2022/04/28 05:07:57;;;;;;;;;;;4.80;99.90;;;;;;5074625;28;19912;-72
2022/04/28 05:10:22;;;;;;;;;;;4.80;99.90;;;;;;5075736;28;20193;-74
2022/04/28 05:12:48;;;;;;;;;;;5.00;99.90;;;;;;5073487;28;19979;-72
2022/04/28 05:15:14;;;;;;;;;;;5.10;99.90;;;;;;5051713;28;20106;-73
2022/04/28 05:17:39;;;;;;;;;;;5.20;99.90;;;;;;5056771;28;19927;-73
2022/04/28 05:20:06;;;;;;;;;;;5.20;99.90;;;;;;5055477;28;19913;-72
2022/04/28 05:22:31;;;;;;;;;;;5.40;99.90;;;;;;5056071;28;19920;-72
2022/04/28 05:24:57;;;;;;;;;;;5.50;99.90;;;;;;5063147;28;20333;-73
2022/04/28 05:27:22;;;;;;;;;;;5.60;99.90;;;;;;5075919;28;19912;-73
2022/04/28 05:29:48;;;;;;;;;;;5.70;99.90;;;;;;5076229;28;19908;-72
2022/04/28 05:32:13;;;;;;;;;;;5.70;99.90;;;;;;5074965;28;19908;-73
2022/04/28 05:34:39;;;;;;;;;;;5.90;99.90;;;;;;5074685;28;19916;-73
2022/04/28 05:37:06;;;;;;;;;;;6.10;99.90;;;;;;5074525;28;19920;-73
2022/04/28 05:39:31;;;;;;;;;;;6.10;99.90;;;;;;5058509;28;19919;-73
2022/04/28 05:41:57;;;;;;;;;;;6.20;99.90;;;;;;5074764;28;20227;-73
2022/04/28 05:47:07;;;;;;;;;;;6.50;99.90;;;;;;5069048;28;19981;-73
2022/04/28 05:49:33;;;;;;;;;;;6.60;99.90;;;;;;5073157;28;20351;-73
2022/04/28 05:51:59;;;;;;;;;;;6.80;99.90;;;;;;5069265;28;19912;-73
2022/04/28 05:54:24;;;;;;;;;;;6.90;99.90;;;;;;5063783;28;20013;-73
2022/04/28 05:56:50;;;;;;;;;;;7.00;99.90;;;;;;5071227;28;20050;-73
2022/04/28 05:59:16;;;;;;;;;;;7.00;99.90;;;;;;5073680;28;19921;-73
2022/04/28 06:01:42;;;;;;;;;;;7.10;99.90;;;;;;5072833;28;19920;-76
2022/04/28 06:04:07;;;;;;;;;;;7.20;99.90;;;;;;5064959;28;19914;-72
2022/04/28 06:06:33;;;;;;;;;;;7.30;99.90;;;;;;5073520;28;20047;-72
2022/04/28 06:08:59;;;;;;;;;;;7.50;99.90;;;;;;5071296;28;19958;-72
2022/04/28 06:11:24;;;;;;;;;;;7.50;99.90;;;;;;5070122;28;19943;-72
2022/04/28 06:13:50;;;;;;;;;;;7.70;99.90;;;;;;5067406;28;19974;-72
2022/04/28 06:16:15;;;;;;;;;;;7.80;99.90;;;;;;5075051;28;20003;-72
2022/04/28 06:18:41;;;;;;;;;;;7.90;99.90;;;;;;5074646;28;20392;-74
2022/04/28 06:21:06;;;;;;;;;;;8.00;99.90;;;;;;5074053;28;19942;-72
2022/04/28 06:23:32;;;;;;;;;;;8.00;99.90;;;;;;5074531;28;19912;-72
2022/04/28 06:25:57;;;;;;;;;;;8.10;99.90;;;;;;5074933;28;19958;-73
2022/04/28 06:28:23;;;;;;;;;;;8.30;99.90;;;;;;5074725;28;19909;-75
2022/04/28 06:30:49;;;;;;;;;;;8.30;99.90;;;;;;5073526;28;19962;-72
2022/04/28 06:33:14;;;;;;;;;;;8.30;99.90;;;;;;5042621;28;19920;-72
2022/04/28 06:35:41;;;;;;;;;;;8.40;99.90;;;;;;5072989;28;19916;-72
2022/04/28 06:38:06;;;;;;;;;;;8.40;99.90;;;;;;5069849;28;19913;-71
2022/04/28 06:40:32;;;;;;;;;;;8.60;99.90;;;;;;5073251;28;19912;-72
2022/04/28 06:42:57;;;;;;;;;;;8.70;99.90;;;;;;5073487;28;19912;-72
2022/04/28 06:45:23;;;;;;;;;;;8.90;99.90;;;;;;5073031;28;19920;-73
2022/04/28 06:47:49;;;;;;;;;;;8.90;99.90;;;;;;5071722;28;19989;-72
2022/04/28 06:50:15;;;;;;;;;;;9.00;99.90;;;;;;5073889;28;20311;-70
2022/04/28 06:52:40;;;;;;;;;;;9.00;99.90;;;;;;5073297;28;20306;-73
2022/04/28 06:55:07;;;;;;;;;;;9.00;99.90;;;;;;5063625;28;19912;-73
2022/04/28 06:57:33;;;;;;;;;;;8.90;99.90;;;;;;5071918;28;19943;-71
2022/04/28 06:59:59;;;;;;;;;;;8.90;99.90;;;;;;5071317;28;19909;-71
2022/04/28 07:02:24;;;;;;;;;;;8.90;99.90;;;;;;5073478;28;19924;-73
2022/04/28 07:04:50;;;;;;;;;;;8.80;99.90;;;;;;5068676;28;20203;-73
2022/04/28 07:07:16;;;;;;;;;;;8.80;99.90;;;;;;5075505;28;19913;-72
2022/04/28 07:09:41;;;;;;;;;;;8.80;99.90;;;;;;5073119;28;19913;-72
2022/04/28 07:12:07;;;;;;;;;;;8.80;99.90;;;;;;5074252;28;20028;-71
2022/04/28 07:14:33;;;;;;;;;;;8.80;99.90;;;;;;5072061;28;20291;-71
2022/04/28 07:16:59;;;;;;;;;;;8.90;99.90;;;;;;5073143;28;19915;-71
2022/04/28 07:19:24;;;;;;;;;;;9.00;99.90;;;;;;5072802;28;19924;-73
2022/04/28 07:21:50;;;;;;;;;;;9.10;99.90;;;;;;5075635;28;19925;-72
2022/04/28 07:24:15;;;;;;;;;;;9.10;99.90;;;;;;5076255;28;20054;-71
2022/04/28 07:26:41;;;;;;;;;;;9.20;99.90;;;;;;5059633;28;19920;-71
2022/04/28 07:29:06;;;;;;;;;;;9.50;99.90;;;;;;5068781;28;20350;-72
2022/04/28 07:31:32;;;;;;;;;;;9.50;99.90;;;;;;5077663;28;20514;-72
2022/04/28 07:33:58;;;;;;;;;;;9.60;99.90;;;;;;5075795;28;19921;-71
2022/04/28 07:36:23;;;;;;;;;;;9.50;99.90;;;;;;5077772;28;19909;-71
2022/04/28 07:38:49;;;;;;;;;;;9.50;99.90;;;;;;5077360;28;19952;-72
2022/04/28 07:41:15;;;;;;;;;;;9.60;99.90;;;;;;5075415;28;19986;-73
2022/04/28 07:43:41;;;;;;;;;;;9.60;99.90;;;;;;5073989;28;19936;-72
2022/04/28 07:46:06;;;;;;;;;;;9.60;99.90;;;;;;5077258;28;19908;-70
2022/04/28 07:48:32;;;;;;;;;;;9.70;99.90;;;;;;5075845;28;20046;-71
2022/04/28 07:50:57;;;;;;;;;;;9.70;99.90;;;;;;5076037;28;19960;-72
2022/04/28 07:53:23;;;;;;;;;;;9.90;99.90;;;;;;5073205;28;20014;-74
2022/04/28 07:56:10;;;;;;;;;;;9.90;99.90;;;;;;5076053;28;19926;-72
2022/04/28 07:58:34;;;;;;;;;;;9.80;99.90;;;;;;5077866;28;19916;-72
2022/04/28 08:01:00;;;;;;;;;;;9.70;99.90;;;;;;5067165;28;19917;-70
2022/04/28 08:03:25;;;;;;;;;;;9.60;99.90;;;;;;5057693;28;19935;-73
2022/04/28 08:05:51;;;;;;;;;;;9.70;99.90;;;;;;5065990;28;19948;-73
2022/04/28 08:08:17;;;;;;;;;;;9.80;99.90;;;;;;5072838;28;20051;-71
2022/04/28 08:10:42;;;;;;;;;;;9.80;99.90;;;;;;5075038;28;19923;-73
2022/04/28 08:13:08;;;;;;;;;;;10.00;99.90;;;;;;5074076;28;19966;-71
2022/04/28 08:15:36;;;;;;;;;;;10.50;99.90;;;;;;5076449;28;20198;-71
2022/04/28 08:18:02;;;;;;;;;;;10.60;99.90;;;;;;5078528;28;19908;-71
2022/04/28 08:20:28;;;;;;;;;;;10.50;99.90;;;;;;5076168;28;20307;-73
2022/04/28 08:22:53;;;;;;;;;;;10.50;99.90;;;;;;5069367;28;19920;-71
2022/04/28 08:25:19;;;;;;;;;;;10.60;99.90;;;;;;5079368;28;20311;-72
2022/04/28 08:27:44;;;;;;;;;;;10.80;99.90;;;;;;5077699;28;20359;-72
2022/04/28 08:30:11;;;;;;;;;;;10.90;99.90;;;;;;5077706;28;19913;-72
2022/04/28 08:32:36;;;;;;;;;;;10.90;99.90;;;;;;5074642;28;19913;-73
2022/04/28 08:35:02;;;;;;;;;;;11.10;99.90;;;;;;5074533;28;20311;-73
2022/04/28 08:37:28;;;;;;;;;;;11.20;99.90;;;;;;5075526;28;19909;-72
2022/04/28 08:39:53;;;;;;;;;;;11.40;99.90;;;;;;5074583;28;20292;-71
2022/04/28 08:42:21;;;;;;;;;;;11.70;99.90;;;;;;5072012;28;19922;-71
2022/04/28 08:44:46;;;;;;;;;;;11.50;99.90;;;;;;5057936;28;19925;-71
2022/04/28 08:47:12;;;;;;;;;;;11.10;99.90;;;;;;5066737;28;19933;-73
2022/04/28 08:49:42;;;;;;;;;;;10.60;99.90;;;;;;5070587;28;19962;-73
2022/04/28 08:52:08;;;;;;;;;;;10.70;99.90;;;;;;5074526;28;19913;-72
2022/04/28 08:54:36;;;;;;;;;;;11.00;99.90;;;;;;5068365;28;19920;-72
2022/04/28 08:57:02;;;;;;;;;;;11.20;99.90;;;;;;5073335;28;19917;-72
2022/04/28 08:59:27;;;;;;;;;;;11.80;99.90;;;;;;5074431;28;19966;-71
2022/04/28 09:01:53;;;;;;;;;;;12.30;99.90;;;;;;5071344;28;19920;-72
2022/04/28 09:04:19;;;;;;;;;;;12.60;99.90;;;;;;5073446;28;20003;-73
2022/04/28 09:06:45;;;;;;;;;;;12.70;99.90;;;;;;5073967;28;19977;-71
2022/04/28 09:09:12;;;;;;;;;;;12.80;99.90;;;;;;5073654;28;19955;-71
2022/04/28 09:11:40;;;;;;;;;;;12.70;99.90;;;;;;5072619;28;19922;-72
2022/04/28 09:16:59;;;;;;;;;;;13.20;99.90;;;;;;5074229;28;20361;-72
2022/04/28 09:19:27;;;;;;;;;;;13.60;99.90;;;;;;5073083;28;19968;-71
2022/04/28 09:21:56;;;;;;;;;;;13.60;99.80;;;;;;5073199;28;19923;-72
2022/04/28 09:24:22;;;;;;;;;;;13.30;99.90;;;;;;5075478;28;20184;-72
2022/04/28 09:26:48;;;;;;;;;;;13.40;99.90;;;;;;5070693;28;19966;-72
2022/04/28 09:29:15;;;;;;;;;;;13.30;99.90;;;;;;5072143;28;19913;-71
2022/04/28 09:31:43;;;;;;;;;;;13.40;99.90;;;;;;5066962;28;19970;-72
2022/04/28 09:34:10;;;;;;;;;;;13.60;99.90;;;;;;5057595;28;19947;-73
2022/04/28 09:36:37;;;;;;;;;;;13.50;99.90;;;;;;5074996;28;20002;-71
2022/04/28 09:39:03;;;;;;;;;;;13.30;99.90;;;;;;5057992;28;19917;-72
2022/04/28 09:44:13;;;;;;;;;;;13.10;99.90;;;;;;5075843;28;20000;-73
2022/04/28 09:46:45;;;;;;;;;;;13.00;99.90;;;;;;5074763;28;19995;-75
2022/04/28 09:49:12;;;;;;;;;;;13.00;99.90;;;;;;5071086;28;19961;-73
2022/04/28 09:51:39;;;;;;;;;;;13.00;99.90;;;;;;5072913;28;19916;-73
2022/04/28 09:54:09;;;;;;;;;;;13.30;99.90;;;;;;5073965;28;19920;-73
2022/04/28 09:56:36;;;;;;;;;;;13.30;99.90;;;;;;5072977;28;19921;-72
2022/04/28 09:59:04;;;;;;;;;;;13.40;99.90;;;;;;5073333;28;19916;-73
2022/04/28 10:01:30;;;;;;;;;;;13.10;99.90;;;;;;5071524;28;20330;-72
2022/04/28 10:03:56;;;;;;;;;;;13.30;99.90;;;;;;5072101;28;19912;-73
2022/04/28 10:06:24;;;;;;;;;;;13.60;99.90;;;;;;5072062;28;19920;-74
2022/04/28 10:08:51;;;;;;;;;;;13.40;99.90;;;;;;5075540;28;19919;-74
2022/04/28 10:11:19;;;;;;;;;;;13.50;99.90;;;;;;5074411;28;20272;-72
2022/04/28 10:13:46;;;;;;;;;;;13.50;99.90;;;;;;5062362;28;19927;-75
2022/04/28 10:16:12;;;;;;;;;;;13.60;99.90;;;;;;5063838;28;19909;-73
2022/04/28 10:18:41;;;;;;;;;;;13.30;99.90;;;;;;5075242;28;19919;-73
2022/04/28 10:21:10;;;;;;;;;;;13.00;99.90;;;;;;5070414;28;20203;-72
2022/04/28 10:35:08;;;;;;;;;;;13.60;99.90;;;;;;5073721;28;19919;-71
2022/04/28 10:37:40;;;;;;;;;;;13.60;99.10;;;;;;5070311;28;19931;-74
2022/04/28 10:40:11;;;;;;;;;;;13.50;99.90;;;;;;5072900;28;20309;-75
2022/04/28 10:42:37;;;;;;;;;;;13.70;99.90;;;;;;5065512;28;20303;-72
2022/04/28 10:45:06;;;;;;;;;;;13.70;99.90;;;;;;5078982;28;19925;-74
2022/04/28 10:47:36;;;;;;;;;;;14.10;99.90;;;;;;5060475;28;19913;-74
2022/04/28 10:50:03;;;;;;;;;;;14.10;99.50;;;;;;5071906;28;19909;-74
2022/04/28 10:52:29;;;;;;;;;;;14.20;99.90;;;;;;5067018;28;19913;-72
2022/04/28 10:54:58;;;;;;;;;;;14.10;99.30;;;;;;5074497;28;19912;-75
2022/04/28 10:57:28;;;;;;;;;;;14.20;99.90;;;;;;5076147;28;19971;-72
2022/04/28 10:59:54;;;;;;;;;;;14.50;99.90;;;;;;5076345;28;19980;-73
2022/04/28 11:02:19;;;;;;;;;;;14.50;99.90;;;;;;5077816;28;20269;-72
2022/04/28 11:05:01;;;;;;;;;;;14.70;99.90;;;;;;5077435;28;19917;-73
2022/04/28 11:07:28;;;;;;;;;;;14.30;99.90;;;;;;5077331;28;20030;-73
2022/04/28 11:09:57;;;;;;;;;;;13.60;99.90;;;;;;5077095;28;20231;-72
2022/04/28 11:12:23;;;;;;;;;;;12.70;99.90;;;;;;5076847;28;19985;-72
2022/04/28 11:14:49;;;;;;;;;;;12.70;99.90;;;;;;5058543;28;19916;-73
2022/04/28 11:17:16;;;;;;;;;;;12.70;99.90;;;;;;5074474;28;20015;-72
2022/04/28 11:19:43;;;;;;;;;;;12.80;99.90;;;;;;5076003;28;19948;-72
2022/04/28 11:22:09;;;;;;;;;;;12.70;99.90;;;;;;5077291;28;19916;-73
2022/04/28 11:24:39;;;;;;;;;;;12.60;99.90;;;;;;5075011;28;19995;-73
2022/04/28 11:27:05;;;;;;;;;;;12.40;99.90;;;;;;5077679;28;19923;-71
2022/04/28 11:29:31;;;;;;;;;;;12.30;99.90;;;;;;5075770;28;19917;-74
2022/04/28 11:31:58;;;;;;;;;;;12.50;99.90;;;;;;5075029;28;19966;-71
2022/04/28 11:34:24;;;;;;;;;;;12.30;99.90;;;;;;5069015;28;20466;-74
2022/04/28 11:36:50;;;;;;;;;;;12.60;99.90;;;;;;5075481;28;19966;-74
2022/04/28 11:39:15;;;;;;;;;;;12.60;99.90;;;;;;5077521;28;20295;-70
2022/04/28 11:41:42;;;;;;;;;;;12.80;99.90;;;;;;5068421;28;19967;-72
2022/04/28 11:44:08;;;;;;;;;;;12.70;99.90;;;;;;5074492;28;19909;-72
2022/04/28 11:46:35;;;;;;;;;;;12.80;99.90;;;;;;5067870;28;19913;-72
2022/04/28 11:49:02;;;;;;;;;;;12.70;99.90;;;;;;5082884;28;19916;-71
2022/04/28 11:51:31;;;;;;;;;;;12.70;99.90;;;;;;5077287;28;19909;-73
2022/04/28 11:53:57;;;;;;;;;;;12.50;99.90;;;;;;5065944;28;20072;-72
2022/04/28 11:56:29;;;;;;;;;;;12.50;99.90;;;;;;5069588;28;19913;-73
2022/04/28 11:58:55;;;;;;;;;;;12.60;99.90;;;;;;5054375;28;19966;-72
2022/04/28 12:01:21;;;;;;;;;;;12.70;99.90;;;;;;5050900;28;19924;-72
2022/04/28 12:03:50;;;;;;;;;;;12.60;99.90;;;;;;5071776;28;19918;-72
2022/04/28 12:06:17;;;;;;;;;;;12.80;99.90;;;;;;5067610;28;19920;-72
2022/04/28 12:14:22;;;;;;;;;;;12.60;99.90;;;;;;5071293;28;19916;-73
2022/04/28 12:14:32;;;;;;;;;;;12.80;99.90;;;;;;5076747;28;19969;-72
2022/04/28 12:19:50;;;;;;;;;;;12.80;99.90;;;;;;5076983;28;19934;-72
2022/04/28 12:22:25;;;;;;;;;;;12.50;99.90;;;;;;5076191;28;20258;-71
2022/04/28 12:24:51;;;;;;;;;;;12.40;99.90;;;;;;5076873;28;19915;-74
2022/04/28 12:27:16;;;;;;;;;;;12.40;99.90;;;;;;5075701;28;19917;-73
2022/04/28 12:29:46;;;;;;;;;;;12.40;99.90;;;;;;5076325;28;19923;-71
2022/04/28 12:32:13;;;;;;;;;;;12.50;99.90;;;;;;5061473;28;19920;-72
2022/04/28 12:34:38;;;;;;;;;;;12.20;99.90;;;;;;5076520;28;19909;-71
2022/04/28 12:37:04;;;;;;;;;;;12.50;99.90;;;;;;5069425;28;20308;-71
2022/04/28 12:39:52;;;;;;;;;;;12.70;99.90;;;;;;5077374;28;20267;-72
2022/04/28 12:42:19;;;;;;;;;;;12.70;99.90;;;;;;5076814;28;19917;-72
2022/04/28 12:44:45;;;;;;;;;;;12.60;99.90;;;;;;5076115;28;19916;-74
2022/04/28 12:47:12;;;;;;;;;;;12.80;99.90;;;;;;5076621;28;20208;-73
2022/04/28 12:49:48;;;;;;;;;;;12.70;99.90;;;;;;5063631;28;19967;-72
2022/04/28 12:52:30;;;;;;;;;;;12.50;99.90;;;;;;5075239;28;20210;-72
2022/04/28 12:55:05;;;;;;;;;;;12.60;99.90;;;;;;5069215;28;19924;-73
2022/04/28 12:57:31;;;;;;;;;;;12.70;99.90;;;;;;5065690;28;19920;-72
2022/04/28 13:00:00;;;;;;;;;;;12.60;99.90;;;;;;5068324;28;19916;-72
2022/04/28 13:02:30;;;;;;;;;;;12.70;99.90;;;;;;5062622;28;19928;-72
2022/04/28 13:05:06;;;;;;;;;;;12.60;99.90;;;;;;5075633;28;20023;-71
2022/04/28 13:07:32;;;;;;;;;;;12.90;99.90;;;;;;5070772;28;19913;-73
2022/04/28 13:09:57;;;;;;;;;;;12.80;99.90;;;;;;5056330;28;19919;-72
2022/04/28 13:12:23;;;;;;;;;;;12.80;99.90;;;;;;5074874;28;20050;-74
2022/04/28 13:14:51;;;;;;;;;;;12.80;99.90;;;;;;5074760;28;20336;-72
2022/04/28 13:17:17;;;;;;;;;;;12.80;99.90;;;;;;5075472;28;19909;-73
2022/04/28 13:19:42;;;;;;;;;;;13.00;99.90;;;;;;5064215;28;19919;-71
2022/04/28 13:22:08;;;;;;;;;;;12.90;99.90;;;;;;5074459;28;19913;-74
2022/04/28 13:24:33;;;;;;;;;;;12.70;99.90;;;;;;5074994;28;19958;-73
2022/04/28 13:26:59;;;;;;;;;;;12.70;99.90;;;;;;5074909;28;20366;-74
2022/04/28 13:29:25;;;;;;;;;;;13.00;99.90;;;;;;5074904;28;19922;-73
2022/04/28 13:31:50;;;;;;;;;;;12.70;99.90;;;;;;5074710;28;19916;-72
2022/04/28 13:34:16;;;;;;;;;;;12.80;99.90;;;;;;5074748;28;19919;-72
2022/04/28 13:36:42;;;;;;;;;;;12.60;99.90;;;;;;5074241;28;19916;-71
2022/04/28 13:39:08;;;;;;;;;;;12.70;99.90;;;;;;5073886;28;19916;-72
2022/04/28 13:41:33;;;;;;;;;;;12.80;99.90;;;;;;5065655;28;19919;-71
2022/04/28 13:43:59;;;;;;;;;;;13.20;99.90;;;;;;5075611;28;20030;-72
2022/04/28 13:46:24;;;;;;;;;;;13.10;99.90;;;;;;5073912;28;19921;-74
2022/04/28 13:48:50;;;;;;;;;;;12.80;99.90;;;;;;5073505;28;19920;-72
2022/04/28 13:51:15;;;;;;;;;;;12.70;99.90;;;;;;5074265;28;20368;-72
2022/04/28 13:53:42;;;;;;;;;;;12.80;99.90;;;;;;5074770;28;19912;-72
2022/04/28 13:56:08;;;;;;;;;;;12.90;99.90;;;;;;5065834;28;19912;-72
2022/04/28 13:58:34;;;;;;;;;;;12.80;99.90;;;;;;5073241;28;20045;-72
2022/04/28 14:01:00;;;;;;;;;;;12.70;99.90;;;;;;5068419;28;20260;-71
2022/04/28 14:03:26;;;;;;;;;;;12.70;99.90;;;;;;5075154;28;19923;-72
2022/04/28 14:05:52;;;;;;;;;;;12.60;99.90;;;;;;5074995;28;20218;-71
2022/04/28 14:08:18;;;;;;;;;;;12.60;99.90;;;;;;5080359;28;20192;-72
2022/04/28 14:10:45;;;;;;;;;;;12.60;99.90;;;;;;5072166;28;20315;-71
2022/04/28 14:13:11;;;;;;;;;;;12.80;99.90;;;;;;5074846;28;19920;-72
2022/04/28 14:15:36;;;;;;;;;;;12.80;99.90;;;;;;5073912;28;20230;-71
2022/04/28 14:18:02;;;;;;;;;;;12.90;99.90;;;;;;5072857;28;19917;-74
2022/04/28 14:20:27;;;;;;;;;;;12.60;99.90;;;;;;5073981;28;19936;-72
2022/04/28 14:22:53;;;;;;;;;;;12.70;99.90;;;;;;5074873;28;20311;-72
2022/04/28 14:25:19;;;;;;;;;;;12.80;99.90;;;;;;5072223;28;19916;-72
2022/04/28 14:27:44;;;;;;;;;;;12.60;99.90;;;;;;5074019;28;19917;-72
2022/04/28 14:30:10;;;;;;;;;;;12.80;99.90;;;;;;5074189;28;19913;-71
2022/04/28 14:32:39;;;;;;;;;;;12.90;99.90;;;;;;5077512;28;19916;-72
2022/04/28 14:35:06;;;;;;;;;;;12.80;99.90;;;;;;5076462;28;20455;-73
2022/04/28 14:37:31;;;;;;;;;;;12.60;99.90;;;;;;5076989;28;19970;-71
2022/04/28 14:39:57;;;;;;;;;;;12.60;99.90;;;;;;5077412;28;19913;-71
2022/04/28 14:42:22;;;;;;;;;;;12.50;99.90;;;;;;5075747;28;19924;-76
2022/04/28 14:44:48;;;;;;;;;;;12.50;99.90;;;;;;5077773;28;19908;-74
2022/04/28 14:47:14;;;;;;;;;;;12.60;99.90;;;;;;5077521;28;20211;-73
2022/04/28 14:52:24;;;;;;;;;;;12.90;99.90;;;;;;5076393;28;19958;-75
2022/04/28 14:54:55;;;;;;;;;;;12.50;99.90;;;;;;5076600;28;20293;-72
2022/04/28 14:57:22;;;;;;;;;;;12.20;99.90;;;;;;5079853;28;20291;-75
2022/04/28 14:59:48;;;;;;;;;;;12.20;99.90;;;;;;5076714;28;20334;-72
2022/04/28 15:02:13;;;;;;;;;;;12.50;99.90;;;;;;5077649;28;19920;-72